createdAt,value
2023-08-07T00:01:47.138Z,12.65
2023-08-07T00:04:13.872Z,12.66
2023-08-07T00:06:40.388Z,12.66
2023-08-07T00:09:06.973Z,12.65
2023-08-07T00:11:33.758Z,12.65
2023-08-07T00:14:02.059Z,12.66
2023-08-07T00:16:28.635Z,12.65
2023-08-07T00:18:57.384Z,12.65
2023-08-07T00:21:24.503Z,12.64
2023-08-07T00:23:51.303Z,12.64
2023-08-07T00:26:18.047Z,12.65
2023-08-07T00:28:44.853Z,12.64
2023-08-07T00:31:11.675Z,12.65
2023-08-07T00:33:38.439Z,12.63
2023-08-07T00:36:05.686Z,12.61
2023-08-07T00:38:32.412Z,12.61
2023-08-07T00:41:00.960Z,12.62
2023-08-07T00:43:27.844Z,12.62
2023-08-07T00:45:55.011Z,12.63
2023-08-07T00:48:22.495Z,12.62
2023-08-07T00:50:49.672Z,12.62
2023-08-07T00:53:16.508Z,12.63
2023-08-07T00:55:43.985Z,12.62
2023-08-07T00:58:11.180Z,12.64
2023-08-07T01:00:37.914Z,12.63
2023-08-07T01:03:08.033Z,12.65
2023-08-07T01:05:35.812Z,12.65
2023-08-07T01:08:04.012Z,12.66
2023-08-07T01:10:51.742Z,12.66
2023-08-07T01:13:41.281Z,12.68
2023-08-07T01:16:19.403Z,12.70
2023-08-07T01:18:47.517Z,12.69
2023-08-07T01:21:20.445Z,12.71
2023-08-07T01:23:48.393Z,12.72
2023-08-07T01:26:18.201Z,12.72
2023-08-07T01:28:55.446Z,12.71
2023-08-07T01:31:24.383Z,12.70
2023-08-07T01:34:07.544Z,12.72
2023-08-07T01:36:34.742Z,12.75
2023-08-07T01:39:03.019Z,12.76
2023-08-07T01:41:30.169Z,12.76
2023-08-07T01:43:56.813Z,12.79
2023-08-07T01:46:23.490Z,12.79
2023-08-07T01:48:50.254Z,12.79
2023-08-07T01:51:16.728Z,12.80
2023-08-07T01:53:43.417Z,12.81
2023-08-07T01:56:09.979Z,12.83
2023-08-07T01:58:36.482Z,12.84
2023-08-07T02:01:03.188Z,12.84
2023-08-07T02:03:30.023Z,12.83
2023-08-07T02:06:03.116Z,12.84
2023-08-07T02:08:29.742Z,12.84
2023-08-07T02:10:56.273Z,12.82
2023-08-07T02:13:22.839Z,12.84
2023-08-07T02:15:49.522Z,12.82
2023-08-07T02:18:16.009Z,12.82
2023-08-07T02:20:42.511Z,12.82
2023-08-07T02:23:08.989Z,12.80
2023-08-07T02:25:36.075Z,12.80
2023-08-07T02:28:02.576Z,12.79
2023-08-07T02:30:29.227Z,12.77
2023-08-07T02:32:56.028Z,12.75
2023-08-07T02:35:22.519Z,12.74
2023-08-07T02:37:49.030Z,12.74
2023-08-07T02:40:16.557Z,12.76
2023-08-07T02:42:43.727Z,12.76
2023-08-07T02:45:10.715Z,12.77
2023-08-07T02:47:37.271Z,12.76
2023-08-07T02:50:04.184Z,12.76
2023-08-07T02:52:30.860Z,12.77
2023-08-07T02:54:57.350Z,12.76
2023-08-07T02:57:23.904Z,12.75
2023-08-07T02:59:50.416Z,12.72
2023-08-07T03:02:19.995Z,12.71
2023-08-07T03:04:46.561Z,12.72
2023-08-07T03:07:23.693Z,12.72
2023-08-07T03:09:50.229Z,12.71
2023-08-07T03:12:16.866Z,12.73
2023-08-07T03:14:43.327Z,12.72
2023-08-07T03:17:09.946Z,12.72
2023-08-07T03:19:36.494Z,12.70
2023-08-07T03:22:03.180Z,12.70
2023-08-07T03:24:29.686Z,12.69
2023-08-07T03:26:56.487Z,12.68
2023-08-07T03:29:23.445Z,12.68
2023-08-07T03:31:50.017Z,12.67
2023-08-07T03:34:16.985Z,12.66
2023-08-07T03:36:43.452Z,12.66
2023-08-07T03:39:16.503Z,12.66
2023-08-07T03:41:43.334Z,12.65
2023-08-07T03:44:09.973Z,12.65
2023-08-07T03:46:36.407Z,12.65
2023-08-07T03:49:02.946Z,12.64
2023-08-07T03:51:30.926Z,12.65
2023-08-07T03:53:57.423Z,12.66
2023-08-07T03:56:23.942Z,12.65
2023-08-07T03:58:51.299Z,12.66
2023-08-07T04:01:18.182Z,12.68
2023-08-07T04:03:48.089Z,12.68
2023-08-07T04:06:17.039Z,12.69
2023-08-07T04:08:46.386Z,12.70
2023-08-07T04:11:12.979Z,12.72
2023-08-07T04:13:39.853Z,12.73
2023-08-07T04:16:07.276Z,12.74
2023-08-07T04:18:34.973Z,12.75
2023-08-07T04:21:02.000Z,12.73
2023-08-07T04:23:28.659Z,12.75
2023-08-07T04:25:55.838Z,12.72
2023-08-07T04:28:23.088Z,12.72
2023-08-07T04:30:53.643Z,12.71
2023-08-07T04:33:21.331Z,12.72
2023-08-07T04:35:48.528Z,12.72
2023-08-07T04:38:18.687Z,12.72
2023-08-07T04:40:47.134Z,12.73
2023-08-07T04:43:14.883Z,12.74
2023-08-07T04:45:42.345Z,12.74
2023-08-07T04:48:09.826Z,12.75
2023-08-07T04:50:36.317Z,12.75
2023-08-07T04:53:02.801Z,12.76
2023-08-07T04:55:29.429Z,12.77
2023-08-07T04:57:57.365Z,12.78
2023-08-07T05:00:24.327Z,12.81
2023-08-07T05:02:51.250Z,12.80
2023-08-07T05:05:21.931Z,12.82
2023-08-07T05:07:49.602Z,12.83
2023-08-07T05:10:16.243Z,12.84
2023-08-07T05:12:42.871Z,12.86
2023-08-07T05:15:09.827Z,12.87
2023-08-07T05:17:36.571Z,12.86
2023-08-07T05:20:03.764Z,12.87
2023-08-07T05:22:30.757Z,12.87
2023-08-07T05:24:57.284Z,12.85
2023-08-07T05:27:23.778Z,12.85
2023-08-07T05:29:50.286Z,12.85
2023-08-07T05:32:16.799Z,12.84
2023-08-07T05:34:43.319Z,12.85
2023-08-07T05:37:09.831Z,12.83
2023-08-07T05:39:37.141Z,12.85
2023-08-07T05:42:04.326Z,12.86
2023-08-07T05:44:31.458Z,12.88
2023-08-07T05:46:58.151Z,12.90
2023-08-07T05:49:26.191Z,12.90
2023-08-07T05:51:53.273Z,12.92
2023-08-07T05:54:20.114Z,12.92
2023-08-07T05:56:46.596Z,12.93
2023-08-07T05:59:13.364Z,12.92
2023-08-07T06:01:40.014Z,12.93
2023-08-07T06:04:06.722Z,12.92
2023-08-07T06:06:35.941Z,12.96
2023-08-07T06:09:04.361Z,12.99
2023-08-07T06:11:30.873Z,13.01
2023-08-07T06:13:57.392Z,13.03
2023-08-07T06:16:24.048Z,13.06
2023-08-07T06:18:50.656Z,13.10
2023-08-07T06:21:17.705Z,13.12
2023-08-07T06:23:44.265Z,13.15
2023-08-07T06:26:10.738Z,13.19
2023-08-07T06:28:40.268Z,13.22
2023-08-07T06:31:08.675Z,13.27
2023-08-07T06:33:35.660Z,13.32
2023-08-07T06:36:03.577Z,13.37
2023-08-07T06:38:30.300Z,13.42
2023-08-07T06:40:57.024Z,13.48
2023-08-07T06:43:23.683Z,13.52
2023-08-07T06:45:54.918Z,13.54
2023-08-07T06:48:21.524Z,13.57
2023-08-07T06:50:48.944Z,13.61
2023-08-07T06:53:15.546Z,13.65
2023-08-07T06:55:42.525Z,13.66
2023-08-07T06:58:09.470Z,13.70
2023-08-07T07:00:36.953Z,13.74
2023-08-07T07:03:04.375Z,13.82
2023-08-07T07:05:31.800Z,13.91
2023-08-07T07:07:58.780Z,13.94
2023-08-07T07:10:25.430Z,13.97
2023-08-07T07:12:53.332Z,14.01
2023-08-07T07:15:20.063Z,14.01
2023-08-07T07:17:46.632Z,13.97
2023-08-07T07:20:13.608Z,13.94
2023-08-07T07:22:40.224Z,13.85
2023-08-07T07:25:07.387Z,13.79
2023-08-07T07:27:34.095Z,13.76
2023-08-07T07:30:00.757Z,13.71
2023-08-07T07:32:27.487Z,13.71
2023-08-07T07:34:54.184Z,13.70
2023-08-07T07:37:20.898Z,13.74
2023-08-07T07:39:47.498Z,13.80
2023-08-07T07:42:14.012Z,13.92
2023-08-07T07:44:41.114Z,13.96
2023-08-07T07:47:10.654Z,14.03
2023-08-07T07:49:39.306Z,14.14
2023-08-07T07:52:06.767Z,14.27
2023-08-07T07:54:33.250Z,14.40
2023-08-07T07:56:59.968Z,14.49
2023-08-07T07:59:26.435Z,14.54
2023-08-07T08:01:52.939Z,14.52
2023-08-07T08:04:20.789Z,14.40
2023-08-07T08:06:49.476Z,14.27
2023-08-07T08:09:16.649Z,14.20
2023-08-07T08:11:43.523Z,14.12
2023-08-07T08:14:10.185Z,14.06
2023-08-07T08:16:36.932Z,13.99
2023-08-07T08:19:03.953Z,13.91
2023-08-07T08:21:32.130Z,13.89
2023-08-07T08:23:58.797Z,13.92
2023-08-07T08:26:25.531Z,13.92
2023-08-07T08:28:51.987Z,13.95
2023-08-07T08:31:18.768Z,13.94
2023-08-07T08:33:45.615Z,13.98
2023-08-07T08:36:12.225Z,14.08
2023-08-07T08:38:38.905Z,14.17
2023-08-07T08:41:10.385Z,14.24
2023-08-07T08:43:38.850Z,14.35
2023-08-07T08:46:06.533Z,14.52
2023-08-07T08:48:39.423Z,14.67
2023-08-07T08:51:07.353Z,14.73
2023-08-07T08:53:33.914Z,14.70
2023-08-07T08:56:02.056Z,14.63
2023-08-07T08:58:29.542Z,14.54
2023-08-07T09:00:56.235Z,14.48
2023-08-07T09:03:23.078Z,14.42
2023-08-07T09:05:52.548Z,14.36
2023-08-07T09:08:19.458Z,14.35
2023-08-07T09:10:46.592Z,14.38
2023-08-07T09:13:16.155Z,14.42
2023-08-07T09:15:48.887Z,14.50
2023-08-07T09:18:16.625Z,14.51
2023-08-07T09:20:43.580Z,14.60
2023-08-07T09:23:10.252Z,14.71
2023-08-07T09:25:37.017Z,14.93
2023-08-07T09:28:07.316Z,15.11
2023-08-07T09:30:36.308Z,15.22
2023-08-07T09:33:03.744Z,15.33
2023-08-07T09:35:32.544Z,15.46
2023-08-07T09:37:59.657Z,15.41
2023-08-07T09:40:26.730Z,15.42
2023-08-07T09:42:54.563Z,15.40
2023-08-07T09:45:22.220Z,15.37
2023-08-07T09:48:01.338Z,15.35
2023-08-07T09:50:28.691Z,15.32
2023-08-07T09:52:59.150Z,15.29
2023-08-07T09:55:26.995Z,15.25
2023-08-07T09:57:54.309Z,15.21
2023-08-07T10:00:22.128Z,15.25
2023-08-07T10:02:52.897Z,15.32
2023-08-07T10:05:19.895Z,15.36
2023-08-07T10:07:48.490Z,15.40
2023-08-07T10:10:15.842Z,15.39
2023-08-07T10:12:42.793Z,15.34
2023-08-07T10:15:10.169Z,15.29
2023-08-07T10:17:36.712Z,15.24
2023-08-07T10:20:04.455Z,15.34
2023-08-07T10:22:32.992Z,15.50
2023-08-07T10:25:02.711Z,15.79
2023-08-07T10:27:34.618Z,15.98
2023-08-07T10:30:04.004Z,16.12
2023-08-07T10:32:31.871Z,16.13
2023-08-07T10:34:58.388Z,16.25
2023-08-07T10:37:45.278Z,16.47
2023-08-07T10:40:13.993Z,16.56
2023-08-07T10:42:56.040Z,16.37
2023-08-07T10:45:24.458Z,16.23
2023-08-07T10:48:03.017Z,16.15
2023-08-07T10:50:33.981Z,16.08
2023-08-07T10:53:02.152Z,16.03
2023-08-07T10:55:43.790Z,16.05
2023-08-07T10:58:34.772Z,16.38
2023-08-07T11:01:40.358Z,16.74
2023-08-07T11:04:08.731Z,16.72
2023-08-07T11:06:36.950Z,16.66
2023-08-07T11:09:05.830Z,16.53
2023-08-07T11:11:41.781Z,16.37
2023-08-07T11:14:17.119Z,16.25
2023-08-07T11:16:44.674Z,16.33
2023-08-07T11:19:12.740Z,16.48
2023-08-07T11:21:39.475Z,16.31
2023-08-07T11:24:06.237Z,16.25
2023-08-07T11:26:33.416Z,16.39
2023-08-07T11:29:00.107Z,16.61
2023-08-07T11:31:27.116Z,16.77
2023-08-07T11:33:56.111Z,17.00
2023-08-07T11:36:23.630Z,17.13
2023-08-07T11:38:50.149Z,17.33
2023-08-07T11:41:18.354Z,17.14
2023-08-07T11:43:45.687Z,17.27
2023-08-07T11:46:14.556Z,17.41
2023-08-07T11:48:45.443Z,17.55
2023-08-07T11:51:12.509Z,17.67
2023-08-07T11:53:41.432Z,17.81
2023-08-07T11:56:15.951Z,18.01
2023-08-07T11:58:47.058Z,18.11
2023-08-07T12:01:22.016Z,18.10
2023-08-07T12:03:56.634Z,18.26
2023-08-07T12:06:25.317Z,18.54
2023-08-07T12:08:55.646Z,18.65
2023-08-07T12:11:22.331Z,18.65
2023-08-07T12:13:49.741Z,18.50
2023-08-07T12:16:18.119Z,18.34
2023-08-07T12:18:46.977Z,18.07
2023-08-07T12:21:16.694Z,18.03
2023-08-07T12:23:45.169Z,17.94
2023-08-07T12:26:12.038Z,17.90
2023-08-07T12:28:38.728Z,17.90
2023-08-07T12:31:05.674Z,18.03
2023-08-07T12:33:32.784Z,18.33
2023-08-07T12:36:00.114Z,18.54
2023-08-07T12:38:27.309Z,18.66
2023-08-07T12:40:54.201Z,18.72
2023-08-07T12:43:23.416Z,18.86
2023-08-07T12:45:53.526Z,18.87
2023-08-07T12:48:21.131Z,18.80
2023-08-07T12:50:47.932Z,18.81
2023-08-07T12:53:16.781Z,18.83
2023-08-07T12:55:43.220Z,18.90
2023-08-07T12:58:09.695Z,18.90
2023-08-07T13:00:37.014Z,18.79
2023-08-07T13:03:03.567Z,18.87
2023-08-07T13:05:33.933Z,18.96
2023-08-07T13:08:00.876Z,19.10
2023-08-07T13:10:32.422Z,19.14
2023-08-07T13:12:59.898Z,18.95
2023-08-07T13:15:26.541Z,18.89
2023-08-07T13:17:53.118Z,18.89
2023-08-07T13:20:19.721Z,18.65
2023-08-07T13:22:46.456Z,18.54
2023-08-07T13:25:14.663Z,18.88
2023-08-07T13:27:41.666Z,19.12
2023-08-07T13:30:09.542Z,19.19
2023-08-07T13:32:37.459Z,19.29
2023-08-07T13:35:04.642Z,19.32
2023-08-07T13:37:31.368Z,19.33
2023-08-07T13:39:57.884Z,19.12
2023-08-07T13:42:26.024Z,19.20
2023-08-07T13:44:52.957Z,19.38
2023-08-07T13:47:21.834Z,19.27
2023-08-07T13:49:49.168Z,19.19
2023-08-07T13:52:16.380Z,19.14
2023-08-07T13:54:43.346Z,19.14
2023-08-07T13:57:10.305Z,19.00
2023-08-07T13:59:37.081Z,18.75
2023-08-07T14:02:03.617Z,18.58
2023-08-07T14:04:30.350Z,18.70
2023-08-07T14:06:57.014Z,18.68
2023-08-07T14:09:23.618Z,18.85
2023-08-07T14:11:51.249Z,18.94
2023-08-07T14:14:17.982Z,19.03
2023-08-07T14:19:11.995Z,18.94
2023-08-07T14:21:38.688Z,18.93
2023-08-07T14:24:06.393Z,19.09
2023-08-07T14:26:33.077Z,19.10
2023-08-07T14:28:59.721Z,18.86
2023-08-07T14:31:26.245Z,18.61
2023-08-07T14:33:54.493Z,18.65
2023-08-07T14:36:21.579Z,18.66
2023-08-07T14:38:48.359Z,18.66
2023-08-07T14:41:14.876Z,18.82
2023-08-07T14:43:41.522Z,18.83
2023-08-07T14:46:08.241Z,18.77
2023-08-07T14:48:34.939Z,18.91
2023-08-07T14:51:01.481Z,19.10
2023-08-07T14:53:28.597Z,19.16
2023-08-07T14:55:55.537Z,19.05
2023-08-07T14:58:22.995Z,18.95
2023-08-07T15:00:51.630Z,18.83
2023-08-07T15:03:18.425Z,18.76
2023-08-07T15:05:45.140Z,18.92
2023-08-07T15:08:17.650Z,18.96
2023-08-07T15:10:44.173Z,18.97
2023-08-07T15:13:10.702Z,18.99
2023-08-07T15:15:37.286Z,18.96
2023-08-07T15:18:06.103Z,19.06
2023-08-07T15:20:37.736Z,19.12
2023-08-07T15:23:04.858Z,19.10
2023-08-07T15:25:31.442Z,19.22
2023-08-07T15:28:01.529Z,19.17
2023-08-07T15:30:30.316Z,19.33
2023-08-07T15:32:57.357Z,19.16
2023-08-07T15:35:23.971Z,18.90
2023-08-07T15:37:50.584Z,18.61
2023-08-07T15:40:17.094Z,18.75
2023-08-07T15:42:46.781Z,18.87
2023-08-07T15:45:14.370Z,18.82
2023-08-07T15:47:41.158Z,18.79
2023-08-07T15:50:08.305Z,18.58
2023-08-07T15:52:34.800Z,18.61
2023-08-07T15:55:01.281Z,18.58
2023-08-07T15:57:27.843Z,18.59
2023-08-07T15:59:54.306Z,18.44
2023-08-07T16:02:21.010Z,18.44
2023-08-07T16:04:47.727Z,18.32
2023-08-07T16:07:14.489Z,18.26
2023-08-07T16:09:40.997Z,18.21
2023-08-07T16:12:08.001Z,18.13
2023-08-07T16:14:36.350Z,18.07
2023-08-07T16:17:05.470Z,18.05
2023-08-07T16:19:32.027Z,18.04
2023-08-07T16:21:58.651Z,18.27
2023-08-07T16:24:25.205Z,18.30
2023-08-07T16:26:51.822Z,18.05
2023-08-07T16:29:18.820Z,17.89
2023-08-07T16:31:45.414Z,17.80
2023-08-07T16:34:12.045Z,17.77
2023-08-07T16:36:38.697Z,17.76
2023-08-07T16:39:05.368Z,17.71
2023-08-07T16:41:31.923Z,17.69
2023-08-07T16:44:00.919Z,17.65
2023-08-07T16:46:27.530Z,17.66
2023-08-07T16:48:54.224Z,17.75
2023-08-07T16:51:20.978Z,18.06
2023-08-07T16:53:49.094Z,18.06
2023-08-07T16:56:16.152Z,18.19
2023-08-07T16:58:45.300Z,18.28
2023-08-07T17:01:11.855Z,18.20
2023-08-07T17:03:38.634Z,18.05
2023-08-07T17:06:05.401Z,18.04
2023-08-07T17:08:31.991Z,18.09
2023-08-07T17:10:58.500Z,18.13
2023-08-07T17:13:32.541Z,18.22
2023-08-07T17:16:16.979Z,18.32
2023-08-07T17:18:43.848Z,18.44
2023-08-07T17:21:11.184Z,18.39
2023-08-07T17:23:46.028Z,18.44
2023-08-07T17:26:20.674Z,18.29
2023-08-07T17:28:47.256Z,18.12
2023-08-07T17:31:14.195Z,18.06
2023-08-07T17:33:40.903Z,17.91
2023-08-07T17:36:07.841Z,17.71
2023-08-07T17:38:38.529Z,17.62
2023-08-07T17:41:05.069Z,17.58
2023-08-07T17:43:32.025Z,17.35
2023-08-07T17:45:58.866Z,17.36
2023-08-07T17:48:33.964Z,17.32
2023-08-07T17:51:01.910Z,17.23
2023-08-07T17:53:28.584Z,17.21
2023-08-07T17:55:55.529Z,17.21
2023-08-07T17:58:22.501Z,17.37
2023-08-07T18:00:48.985Z,17.44
2023-08-07T18:03:15.855Z,17.49
2023-08-07T18:05:42.474Z,17.41
2023-08-07T18:08:08.930Z,17.39
2023-08-07T18:10:35.463Z,17.37
2023-08-07T18:13:02.120Z,17.32
2023-08-07T18:15:28.918Z,17.22
2023-08-07T18:17:55.658Z,17.17
2023-08-07T18:20:22.414Z,17.15
2023-08-07T18:22:49.036Z,17.00
2023-08-07T18:25:15.539Z,16.99
2023-08-07T18:27:42.075Z,16.99
2023-08-07T18:30:09.159Z,17.01
2023-08-07T18:32:39.057Z,17.02
2023-08-07T18:35:06.392Z,16.98
2023-08-07T18:37:33.021Z,16.86
2023-08-07T18:39:59.471Z,16.80
2023-08-07T18:42:27.230Z,16.76
2023-08-07T18:45:11.181Z,16.68
2023-08-07T18:47:59.772Z,16.57
2023-08-07T18:50:27.812Z,16.53
2023-08-07T18:52:55.250Z,16.51
2023-08-07T18:55:21.716Z,16.52
2023-08-07T18:57:48.454Z,16.51
2023-08-07T19:03:21.201Z,16.44
2023-08-07T19:05:47.953Z,16.45
2023-08-07T19:08:14.985Z,16.44
2023-08-07T19:13:30.770Z,16.32
2023-08-07T19:16:00.479Z,16.30
2023-08-07T19:18:27.296Z,16.24
2023-08-07T19:20:54.068Z,16.23
2023-08-07T19:23:33.198Z,16.22
2023-08-07T19:32:33.982Z,16.14
2023-08-07T19:35:03.309Z,15.99
2023-08-07T19:37:31.328Z,15.91
2023-08-07T19:40:33.173Z,15.89
2023-08-07T19:43:00.347Z,15.89
2023-08-07T19:45:33.387Z,15.87
2023-08-07T19:48:00.080Z,15.80
2023-08-07T19:50:28.959Z,15.81
2023-08-07T19:52:58.019Z,15.71
2023-08-07T19:55:40.669Z,15.69
2023-08-07T19:58:09.908Z,15.70
2023-08-07T20:00:43.280Z,15.69
2023-08-07T20:03:09.924Z,15.62
2023-08-07T20:05:36.678Z,15.61
2023-08-07T20:08:03.498Z,15.53
2023-08-07T20:10:31.107Z,15.45
2023-08-07T20:13:06.141Z,15.43
2023-08-07T20:15:32.857Z,15.40
2023-08-07T20:17:59.720Z,15.33
2023-08-07T20:20:26.534Z,15.34
2023-08-07T20:22:53.041Z,15.31
2023-08-07T20:25:19.770Z,15.28
2023-08-07T20:27:46.641Z,15.24
2023-08-07T20:30:13.190Z,15.18
2023-08-07T20:32:40.107Z,15.16
2023-08-07T20:35:07.070Z,15.11
2023-08-07T20:37:37.118Z,15.07
2023-08-07T20:40:04.078Z,15.06
2023-08-07T20:42:30.625Z,15.04
2023-08-07T20:44:57.872Z,15.03
2023-08-07T20:47:30.116Z,15.02
2023-08-07T20:49:56.989Z,14.92
2023-08-07T20:52:23.888Z,14.91
2023-08-07T20:54:50.358Z,14.83
2023-08-07T20:57:16.876Z,14.87
2023-08-07T20:59:43.331Z,14.81
2023-08-07T21:02:21.504Z,14.80
2023-08-07T21:04:48.593Z,14.76
2023-08-07T21:07:15.153Z,14.77
2023-08-07T21:09:41.864Z,14.62
2023-08-07T21:12:08.844Z,14.66
2023-08-07T21:14:35.493Z,14.66
2023-08-07T21:17:02.132Z,14.54
2023-08-07T21:19:29.568Z,14.50
2023-08-07T21:21:56.358Z,14.39
2023-08-07T21:24:22.990Z,14.23
2023-08-07T21:26:49.539Z,14.31
2023-08-07T21:29:19.223Z,14.30
2023-08-07T21:31:45.889Z,14.30
2023-08-07T21:34:12.548Z,14.30
2023-08-07T21:36:39.204Z,14.37
2023-08-07T21:39:05.979Z,14.42
2023-08-07T21:41:32.569Z,14.42
2023-08-07T21:43:59.257Z,14.40
2023-08-07T21:46:26.038Z,14.41
2023-08-07T21:48:52.560Z,14.44
2023-08-07T21:51:19.132Z,14.49
2023-08-07T21:53:45.776Z,14.52
2023-08-07T21:56:12.585Z,14.49
2023-08-07T21:58:39.091Z,14.45
2023-08-07T22:01:05.756Z,14.46
2023-08-07T22:03:32.599Z,14.40
2023-08-07T22:05:59.575Z,14.39
2023-08-07T22:08:26.386Z,14.36
2023-08-07T22:10:52.958Z,14.36
2023-08-07T22:13:19.670Z,14.42
2023-08-07T22:15:46.315Z,14.48
2023-08-07T22:18:14.121Z,14.53
2023-08-07T22:20:40.819Z,14.57
2023-08-07T22:23:07.498Z,14.49
2023-08-07T22:25:34.153Z,14.42
2023-08-07T22:28:00.811Z,14.38
2023-08-07T22:30:27.566Z,14.42
2023-08-07T22:32:54.461Z,14.44
2023-08-07T22:35:21.275Z,14.30
2023-08-07T22:37:47.998Z,14.22
2023-08-07T22:40:14.832Z,14.26
2023-08-07T22:42:41.341Z,14.15
2023-08-07T22:45:08.322Z,14.10
2023-08-07T22:47:34.927Z,14.15
2023-08-07T22:50:01.642Z,14.25
2023-08-07T22:52:28.331Z,14.21
2023-08-07T22:54:54.831Z,14.17
2023-08-07T22:57:21.340Z,14.17
2023-08-07T22:59:47.878Z,14.14
2023-08-07T23:02:14.381Z,14.14
2023-08-07T23:04:41.031Z,14.13
2023-08-07T23:07:07.518Z,14.03
2023-08-07T23:09:34.203Z,13.99
2023-08-07T23:12:06.613Z,13.95
2023-08-07T23:14:33.198Z,13.95
2023-08-07T23:16:59.889Z,13.92
2023-08-07T23:19:26.481Z,13.95
2023-08-07T23:21:52.924Z,13.96
2023-08-07T23:24:19.487Z,13.91
2023-08-07T23:26:46.157Z,13.91
2023-08-07T23:29:12.763Z,13.90
2023-08-07T23:31:39.471Z,13.87
2023-08-07T23:34:06.621Z,13.84
2023-08-07T23:36:34.198Z,13.87
2023-08-07T23:39:00.792Z,13.89
2023-08-07T23:41:27.531Z,13.85
2023-08-07T23:43:54.055Z,13.81
2023-08-07T23:46:20.813Z,13.81
2023-08-07T23:48:47.448Z,13.83
2023-08-07T23:51:13.954Z,13.83
2023-08-07T23:53:40.441Z,13.82
2023-08-07T23:56:07.180Z,13.82
2023-08-07T23:58:33.853Z,13.86
